sensor_id;sensor_type;location;lat;lon;timestamp;pressure;altitude;pressure_sealevel;temperature;humidity
64404;BME280;50726;54.912;-8.392;2022-08-18T00:00:26;100446.50;;;27.93;nan
64404;BME280;50726;54.912;-8.392;2022-08-18T00:02:53;100425.22;;;26.97;nan
64404;BME280;50726;54.912;-8.392;2022-08-18T00:05:20;100435.25;;;26.85;nan
64404;BME280;50726;54.912;-8.392;2022-08-18T00:07:45;100426.91;;;26.31;nan
64404;BME280;50726;54.912;-8.392;2022-08-18T00:10:11;100432.19;;;27.46;nan
64404;BME280;50726;54.912;-8.392;2022-08-18T00:12:40;100425.91;;;28.38;nan
64404;BME280;50726;54.912;-8.392;2022-08-18T00:15:12;100420.19;;;27.22;nan
64404;BME280;50726;54.912;-8.392;2022-08-18T00:17:38;100420.25;;;25.76;nan
64404;BME280;50726;54.912;-8.392;2022-08-18T00:20:06;100406.03;;;27.76;nan
64404;BME280;50726;54.912;-8.392;2022-08-18T00:22:33;100402.59;;;27.00;nan
64404;BME280;50726;54.912;-8.392;2022-08-18T00:24:59;100394.34;;;27.11;nan
64404;BME280;50726;54.912;-8.392;2022-08-18T00:27:29;100395.81;;;27.80;nan
64404;BME280;50726;54.912;-8.392;2022-08-18T00:29:57;100400.25;;;26.87;nan
64404;BME280;50726;54.912;-8.392;2022-08-18T00:32:31;100392.13;;;28.44;nan
64404;BME280;50726;54.912;-8.392;2022-08-18T00:35:08;100372.44;;;27.80;nan
64404;BME280;50726;54.912;-8.392;2022-08-18T00:37:34;100384.97;;;26.97;nan
64404;BME280;50726;54.912;-8.392;2022-08-18T00:40:00;100377.50;;;27.65;nan
64404;BME280;50726;54.912;-8.392;2022-08-18T00:42:28;100377.47;;;27.75;nan
64404;BME280;50726;54.912;-8.392;2022-08-18T00:44:55;100368.13;;;27.51;nan
64404;BME280;50726;54.912;-8.392;2022-08-18T00:47:21;100368.38;;;26.74;nan
64404;BME280;50726;54.912;-8.392;2022-08-18T00:49:50;100356.38;;;25.81;nan
64404;BME280;50726;54.912;-8.392;2022-08-18T00:52:17;100355.66;;;25.69;nan
64404;BME280;50726;54.912;-8.392;2022-08-18T00:54:44;100354.97;;;25.57;nan
64404;BME280;50726;54.912;-8.392;2022-08-18T00:57:12;100358.06;;;25.82;nan
64404;BME280;50726;54.912;-8.392;2022-08-18T00:59:45;100349.53;;;25.27;nan
64404;BME280;50726;54.912;-8.392;2022-08-18T01:02:32;100351.00;;;26.68;nan
64404;BME280;50726;54.912;-8.392;2022-08-18T01:05:04;100329.56;;;26.30;nan
64404;BME280;50726;54.912;-8.392;2022-08-18T01:07:36;100311.75;;;26.39;nan
64404;BME280;50726;54.912;-8.392;2022-08-18T01:10:05;100327.28;;;24.86;nan
64404;BME280;50726;54.912;-8.392;2022-08-18T01:12:31;100315.91;;;24.84;nan
64404;BME280;50726;54.912;-8.392;2022-08-18T01:14:57;100313.50;;;24.59;nan
64404;BME280;50726;54.912;-8.392;2022-08-18T01:17:24;100318.66;;;24.41;nan
64404;BME280;50726;54.912;-8.392;2022-08-18T01:20:13;100306.72;;;25.96;nan
64404;BME280;50726;54.912;-8.392;2022-08-18T01:32:40;100312.97;;;26.54;nan
64404;BME280;50726;54.912;-8.392;2022-08-18T01:35:09;100310.25;;;26.07;nan
64404;BME280;50726;54.912;-8.392;2022-08-18T01:37:37;100309.94;;;25.41;nan
64404;BME280;50726;54.912;-8.392;2022-08-18T01:40:07;100310.88;;;26.48;nan
64404;BME280;50726;54.912;-8.392;2022-08-18T01:42:34;100301.44;;;26.72;nan
64404;BME280;50726;54.912;-8.392;2022-08-18T01:45:00;100299.16;;;26.77;nan
64404;BME280;50726;54.912;-8.392;2022-08-18T01:47:29;100296.09;;;25.06;nan
64404;BME280;50726;54.912;-8.392;2022-08-18T01:49:56;100301.47;;;26.14;nan
64404;BME280;50726;54.912;-8.392;2022-08-18T01:52:23;100288.72;;;25.59;nan
64404;BME280;50726;54.912;-8.392;2022-08-18T01:54:50;100294.72;;;26.58;nan
64404;BME280;50726;54.912;-8.392;2022-08-18T01:57:18;100274.97;;;26.87;nan
64404;BME280;50726;54.912;-8.392;2022-08-18T01:59:44;100281.31;;;26.96;nan
64404;BME280;50726;54.912;-8.392;2022-08-18T02:02:14;100264.59;;;27.39;nan
64404;BME280;50726;54.912;-8.392;2022-08-18T02:04:42;100267.84;;;25.53;nan
64404;BME280;50726;54.912;-8.392;2022-08-18T02:07:11;100263.91;;;27.73;nan
64404;BME280;50726;54.912;-8.392;2022-08-18T02:09:38;100277.88;;;26.48;nan
64404;BME280;50726;54.912;-8.392;2022-08-18T02:12:05;100269.53;;;25.44;nan
64404;BME280;50726;54.912;-8.392;2022-08-18T02:14:33;100260.22;;;25.97;nan
64404;BME280;50726;54.912;-8.392;2022-08-18T02:17:00;100264.16;;;25.73;nan
64404;BME280;50726;54.912;-8.392;2022-08-18T02:19:32;100257.66;;;27.46;nan
64404;BME280;50726;54.912;-8.392;2022-08-18T02:21:58;100256.88;;;26.99;nan
64404;BME280;50726;54.912;-8.392;2022-08-18T02:24:24;100254.59;;;27.85;nan
64404;BME280;50726;54.912;-8.392;2022-08-18T02:26:49;100261.06;;;26.74;nan
64404;BME280;50726;54.912;-8.392;2022-08-18T02:29:15;100243.59;;;25.74;nan
64404;BME280;50726;54.912;-8.392;2022-08-18T02:31:41;100248.66;;;25.47;nan
64404;BME280;50726;54.912;-8.392;2022-08-18T02:34:06;100259.53;;;26.71;nan
64404;BME280;50726;54.912;-8.392;2022-08-18T02:36:32;100261.34;;;25.85;nan
64404;BME280;50726;54.912;-8.392;2022-08-18T02:38:57;100254.66;;;26.85;nan
64404;BME280;50726;54.912;-8.392;2022-08-18T02:41:23;100253.31;;;27.71;nan
64404;BME280;50726;54.912;-8.392;2022-08-18T02:43:50;100239.75;;;27.99;nan
64404;BME280;50726;54.912;-8.392;2022-08-18T02:46:15;100266.19;;;26.95;nan
64404;BME280;50726;54.912;-8.392;2022-08-18T02:48:41;100234.31;;;26.64;nan
64404;BME280;50726;54.912;-8.392;2022-08-18T02:51:11;100247.59;;;26.56;nan
64404;BME280;50726;54.912;-8.392;2022-08-18T02:53:45;100241.59;;;26.44;nan
64404;BME280;50726;54.912;-8.392;2022-08-18T02:56:14;100229.63;;;26.94;nan
64404;BME280;50726;54.912;-8.392;2022-08-18T02:59:04;100233.34;;;26.27;nan
64404;BME280;50726;54.912;-8.392;2022-08-18T03:01:33;100207.56;;;27.00;nan
64404;BME280;50726;54.912;-8.392;2022-08-18T03:04:05;100218.53;;;27.07;nan
64404;BME280;50726;54.912;-8.392;2022-08-18T03:06:33;100213.22;;;28.23;nan
64404;BME280;50726;54.912;-8.392;2022-08-18T03:09:00;100229.25;;;26.23;nan
64404;BME280;50726;54.912;-8.392;2022-08-18T03:11:28;100234.94;;;26.76;nan
64404;BME280;50726;54.912;-8.392;2022-08-18T03:13:55;100241.63;;;27.36;nan
64404;BME280;50726;54.912;-8.392;2022-08-18T03:16:22;100216.22;;;26.38;nan
64404;BME280;50726;54.912;-8.392;2022-08-18T03:18:50;100206.28;;;26.48;nan
64404;BME280;50726;54.912;-8.392;2022-08-18T03:21:24;100199.50;;;26.16;nan
64404;BME280;50726;54.912;-8.392;2022-08-18T03:23:51;100213.59;;;28.10;nan
64404;BME280;50726;54.912;-8.392;2022-08-18T03:26:18;100206.09;;;25.74;nan
64404;BME280;50726;54.912;-8.392;2022-08-18T03:28:47;100209.97;;;27.48;nan
64404;BME280;50726;54.912;-8.392;2022-08-18T03:31:14;100208.16;;;26.66;nan
64404;BME280;50726;54.912;-8.392;2022-08-18T03:33:42;100208.16;;;26.94;nan
64404;BME280;50726;54.912;-8.392;2022-08-18T03:36:12;100200.25;;;26.64;nan
64404;BME280;50726;54.912;-8.392;2022-08-18T03:38:40;100197.38;;;27.67;nan
64404;BME280;50726;54.912;-8.392;2022-08-18T03:41:12;100192.75;;;26.96;nan
64404;BME280;50726;54.912;-8.392;2022-08-18T03:43:39;100190.97;;;26.87;nan
64404;BME280;50726;54.912;-8.392;2022-08-18T03:46:07;100192.69;;;27.24;nan
64404;BME280;50726;54.912;-8.392;2022-08-18T03:48:37;100157.09;;;26.39;nan
64404;BME280;50726;54.912;-8.392;2022-08-18T03:51:12;100166.06;;;26.48;nan
64404;BME280;50726;54.912;-8.392;2022-08-18T03:53:39;100145.03;;;26.25;nan
64404;BME280;50726;54.912;-8.392;2022-08-18T03:56:14;100158.06;;;27.39;nan
64404;BME280;50726;54.912;-8.392;2022-08-18T03:58:45;100146.81;;;26.63;nan
64404;BME280;50726;54.912;-8.392;2022-08-18T04:01:13;100166.34;;;26.17;nan
64404;BME280;50726;54.912;-8.392;2022-08-18T04:03:43;100147.00;;;26.70;nan
64404;BME280;50726;54.912;-8.392;2022-08-18T04:06:23;100146.00;;;26.52;nan
64404;BME280;50726;54.912;-8.392;2022-08-18T04:08:51;100145.44;;;25.93;nan
64404;BME280;50726;54.912;-8.392;2022-08-18T04:11:17;100154.13;;;26.61;nan
64404;BME280;50726;54.912;-8.392;2022-08-18T04:13:43;100152.09;;;27.27;nan
64404;BME280;50726;54.912;-8.392;2022-08-18T04:16:09;100156.69;;;26.80;nan
64404;BME280;50726;54.912;-8.392;2022-08-18T04:18:35;100144.84;;;27.46;nan
64404;BME280;50726;54.912;-8.392;2022-08-18T04:21:05;100156.59;;;26.54;nan
64404;BME280;50726;54.912;-8.392;2022-08-18T04:23:36;100149.78;;;27.77;nan
64404;BME280;50726;54.912;-8.392;2022-08-18T04:26:04;100133.28;;;27.01;nan
64404;BME280;50726;54.912;-8.392;2022-08-18T04:28:33;100154.03;;;27.17;nan
64404;BME280;50726;54.912;-8.392;2022-08-18T04:31:05;100141.78;;;28.28;nan
64404;BME280;50726;54.912;-8.392;2022-08-18T04:33:31;100140.59;;;27.88;nan
64404;BME280;50726;54.912;-8.392;2022-08-18T04:35:57;100152.06;;;27.45;nan
64404;BME280;50726;54.912;-8.392;2022-08-18T04:38:23;100150.94;;;27.30;nan
64404;BME280;50726;54.912;-8.392;2022-08-18T04:40:49;100136.91;;;27.63;nan
64404;BME280;50726;54.912;-8.392;2022-08-18T04:43:15;100143.78;;;28.86;nan
64404;BME280;50726;54.912;-8.392;2022-08-18T04:45:41;100123.38;;;28.59;nan
64404;BME280;50726;54.912;-8.392;2022-08-18T04:48:09;100134.97;;;28.51;nan
64404;BME280;50726;54.912;-8.392;2022-08-18T04:50:36;100135.34;;;28.21;nan
64404;BME280;50726;54.912;-8.392;2022-08-18T04:53:02;100119.34;;;28.71;nan
64404;BME280;50726;54.912;-8.392;2022-08-18T04:55:50;100117.19;;;28.83;nan
64404;BME280;50726;54.912;-8.392;2022-08-18T04:58:17;100128.22;;;28.38;nan
64404;BME280;50726;54.912;-8.392;2022-08-18T05:00:44;100118.34;;;28.56;nan
64404;BME280;50726;54.912;-8.392;2022-08-18T05:03:11;100128.03;;;28.32;nan
64404;BME280;50726;54.912;-8.392;2022-08-18T05:05:37;100115.16;;;28.68;nan
64404;BME280;50726;54.912;-8.392;2022-08-18T05:08:03;100120.78;;;28.32;nan
64404;BME280;50726;54.912;-8.392;2022-08-18T05:10:29;100117.84;;;27.74;nan
64404;BME280;50726;54.912;-8.392;2022-08-18T05:12:55;100132.63;;;28.56;nan
64404;BME280;50726;54.912;-8.392;2022-08-18T05:15:22;100114.16;;;29.28;nan
64404;BME280;50726;54.912;-8.392;2022-08-18T05:17:47;100120.25;;;29.95;nan
64404;BME280;50726;54.912;-8.392;2022-08-18T05:20:13;100121.88;;;29.72;nan
64404;BME280;50726;54.912;-8.392;2022-08-18T05:22:41;100122.13;;;31.13;nan
64404;BME280;50726;54.912;-8.392;2022-08-18T05:25:09;100117.34;;;32.13;nan
64404;BME280;50726;54.912;-8.392;2022-08-18T05:27:37;100122.22;;;32.40;nan
64404;BME280;50726;54.912;-8.392;2022-08-18T05:30:05;100123.53;;;32.07;nan
64404;BME280;50726;54.912;-8.392;2022-08-18T05:32:40;100128.56;;;31.12;nan
64404;BME280;50726;54.912;-8.392;2022-08-18T05:35:10;100169.88;;;29.19;nan
64404;BME280;50726;54.912;-8.392;2022-08-18T05:40:22;100127.91;;;29.83;nan
64404;BME280;50726;54.912;-8.392;2022-08-18T05:42:50;100117.56;;;29.13;nan
64404;BME280;50726;54.912;-8.392;2022-08-18T05:45:18;100109.44;;;29.55;nan
64404;BME280;50726;54.912;-8.392;2022-08-18T05:47:44;100119.19;;;28.73;nan
64404;BME280;50726;54.912;-8.392;2022-08-18T05:50:12;100116.03;;;29.19;nan
64404;BME280;50726;54.912;-8.392;2022-08-18T05:52:55;100107.09;;;30.00;nan
64404;BME280;50726;54.912;-8.392;2022-08-18T05:58:19;100100.00;;;30.71;nan
64404;BME280;50726;54.912;-8.392;2022-08-18T06:00:51;100110.00;;;29.90;nan
64404;BME280;50726;54.912;-8.392;2022-08-18T06:03:25;100117.59;;;30.90;nan
64404;BME280;50726;54.912;-8.392;2022-08-18T06:05:54;100122.28;;;29.03;nan
64404;BME280;50726;54.912;-8.392;2022-08-18T06:08:26;100108.03;;;29.84;nan
64404;BME280;50726;54.912;-8.392;2022-08-18T06:10:53;100107.34;;;28.32;nan
64404;BME280;50726;54.912;-8.392;2022-08-18T06:13:19;100111.84;;;29.16;nan
64404;BME280;50726;54.912;-8.392;2022-08-18T06:26:43;100120.53;;;29.68;nan
64404;BME280;50726;54.912;-8.392;2022-08-18T06:29:31;100121.94;;;29.96;nan
64404;BME280;50726;54.912;-8.392;2022-08-18T06:37:58;100104.44;;;29.02;nan
64404;BME280;50726;54.912;-8.392;2022-08-18T06:40:48;100137.34;;;28.62;nan
64404;BME280;50726;54.912;-8.392;2022-08-18T06:43:14;100119.81;;;30.86;nan
64404;BME280;50726;54.912;-8.392;2022-08-18T06:45:44;100122.91;;;29.46;nan
64404;BME280;50726;54.912;-8.392;2022-08-18T06:50:59;100095.19;;;29.04;nan
64404;BME280;50726;54.912;-8.392;2022-08-18T06:53:52;100110.63;;;30.17;nan
64404;BME280;50726;54.912;-8.392;2022-08-18T06:58:49;100111.19;;;29.23;nan
64404;BME280;50726;54.912;-8.392;2022-08-18T07:01:18;100104.78;;;29.97;nan
64404;BME280;50726;54.912;-8.392;2022-08-18T07:03:49;100094.38;;;30.49;nan
64404;BME280;50726;54.912;-8.392;2022-08-18T07:08:46;100089.50;;;30.52;nan
64404;BME280;50726;54.912;-8.392;2022-08-18T07:11:22;100079.03;;;32.10;nan
64404;BME280;50726;54.912;-8.392;2022-08-18T07:13:51;100056.59;;;32.53;nan
64404;BME280;50726;54.912;-8.392;2022-08-18T07:16:32;100056.94;;;32.06;nan
64404;BME280;50726;54.912;-8.392;2022-08-18T07:19:12;100049.84;;;31.15;nan
64404;BME280;50726;54.912;-8.392;2022-08-18T07:21:40;100039.22;;;30.51;nan
64404;BME280;50726;54.912;-8.392;2022-08-18T07:24:22;100050.06;;;29.88;nan
64404;BME280;50726;54.912;-8.392;2022-08-18T07:27:22;100034.09;;;30.18;nan
64404;BME280;50726;54.912;-8.392;2022-08-18T07:30:13;100037.88;;;30.00;nan
64404;BME280;50726;54.912;-8.392;2022-08-18T07:35:34;100062.59;;;30.12;nan
64404;BME280;50726;54.912;-8.392;2022-08-18T07:43:34;100077.34;;;29.93;nan
64404;BME280;50726;54.912;-8.392;2022-08-18T07:46:09;100079.34;;;29.34;nan
64404;BME280;50726;54.912;-8.392;2022-08-18T07:48:37;100077.25;;;30.41;nan
64404;BME280;50726;54.912;-8.392;2022-08-18T07:51:21;100081.03;;;28.09;nan
64404;BME280;50726;54.912;-8.392;2022-08-18T07:57:04;100077.81;;;28.74;nan
64404;BME280;50726;54.912;-8.392;2022-08-18T07:59:59;100060.91;;;29.71;nan
64404;BME280;50726;54.912;-8.392;2022-08-18T08:05:10;100082.03;;;31.40;nan
64404;BME280;50726;54.912;-8.392;2022-08-18T08:07:54;100082.13;;;31.61;nan
64404;BME280;50726;54.912;-8.392;2022-08-18T08:10:23;100060.63;;;29.90;nan
64404;BME280;50726;54.912;-8.392;2022-08-18T08:21:30;100063.91;;;32.37;nan
64404;BME280;50726;54.912;-8.392;2022-08-18T08:29:48;100065.09;;;30.69;nan
64404;BME280;50726;54.912;-8.392;2022-08-18T08:35:07;100033.59;;;31.53;nan
64404;BME280;50726;54.912;-8.392;2022-08-18T08:40:25;100048.25;;;31.05;nan
64404;BME280;50726;54.912;-8.392;2022-08-18T08:46:12;100043.53;;;30.84;nan
64404;BME280;50726;54.912;-8.392;2022-08-18T08:48:44;100031.69;;;30.23;nan
64404;BME280;50726;54.912;-8.392;2022-08-18T08:51:28;100042.53;;;30.62;nan
64404;BME280;50726;54.912;-8.392;2022-08-18T08:54:05;100011.53;;;30.58;nan
64404;BME280;50726;54.912;-8.392;2022-08-18T08:56:39;100008.28;;;31.01;nan
64404;BME280;50726;54.912;-8.392;2022-08-18T08:59:11;100032.16;;;30.50;nan
64404;BME280;50726;54.912;-8.392;2022-08-18T09:19:54;100013.97;;;26.22;nan
64404;BME280;50726;54.912;-8.392;2022-08-18T09:24:58;100002.94;;;26.07;nan
64404;BME280;50726;54.912;-8.392;2022-08-18T09:29:59;99999.84;;;26.48;nan
64404;BME280;50726;54.912;-8.392;2022-08-18T09:37:49;99983.13;;;26.54;nan
64404;BME280;50726;54.912;-8.392;2022-08-18T09:40:50;99962.53;;;26.19;nan
64404;BME280;50726;54.912;-8.392;2022-08-18T09:46:58;99955.34;;;26.37;nan
64404;BME280;50726;54.912;-8.392;2022-08-18T09:51:52;99953.56;;;28.70;nan
64404;BME280;50726;54.912;-8.392;2022-08-18T09:54:22;99962.13;;;28.99;nan
64404;BME280;50726;54.912;-8.392;2022-08-18T10:02:06;99955.81;;;30.26;nan
64404;BME280;50726;54.912;-8.392;2022-08-18T10:04:42;99966.28;;;29.18;nan
64404;BME280;50726;54.912;-8.392;2022-08-18T10:18:33;99971.22;;;28.39;nan
64404;BME280;50726;54.912;-8.392;2022-08-18T10:23:58;99982.50;;;27.67;nan
64404;BME280;50726;54.912;-8.392;2022-08-18T10:29:05;99967.03;;;28.53;nan
64404;BME280;50726;54.912;-8.392;2022-08-18T10:34:42;99983.97;;;29.60;nan
64404;BME280;50726;54.912;-8.392;2022-08-18T10:42:11;99980.75;;;29.25;nan
64404;BME280;50726;54.912;-8.392;2022-08-18T10:44:43;99978.28;;;29.47;nan
64404;BME280;50726;54.912;-8.392;2022-08-18T10:47:21;99965.69;;;28.33;nan
64404;BME280;50726;54.912;-8.392;2022-08-18T10:49:49;99974.19;;;29.19;nan
64404;BME280;50726;54.912;-8.392;2022-08-18T10:52:31;99974.41;;;28.85;nan
64404;BME280;50726;54.912;-8.392;2022-08-18T11:01:06;99946.56;;;30.44;nan
64404;BME280;50726;54.912;-8.392;2022-08-18T11:04:00;99944.72;;;30.45;nan
64404;BME280;50726;54.912;-8.392;2022-08-18T11:06:27;99947.22;;;31.45;nan
64404;BME280;50726;54.912;-8.392;2022-08-18T11:08:59;99951.56;;;28.47;nan
64404;BME280;50726;54.912;-8.392;2022-08-18T11:11:33;99945.47;;;29.52;nan
64404;BME280;50726;54.912;-8.392;2022-08-18T11:19:26;99932.88;;;27.53;nan
64404;BME280;50726;54.912;-8.392;2022-08-18T11:21:52;99932.19;;;28.85;nan
64404;BME280;50726;54.912;-8.392;2022-08-18T11:26:59;99923.19;;;29.18;nan
64404;BME280;50726;54.912;-8.392;2022-08-18T11:29:39;99909.41;;;28.23;nan
64404;BME280;50726;54.912;-8.392;2022-08-18T11:32:10;99940.88;;;27.79;nan
64404;BME280;50726;54.912;-8.392;2022-08-18T11:35:34;99919.75;;;28.09;nan
64404;BME280;50726;54.912;-8.392;2022-08-18T11:40:47;99914.19;;;31.65;nan
64404;BME280;50726;54.912;-8.392;2022-08-18T11:43:19;99918.28;;;32.41;nan
64404;BME280;50726;54.912;-8.392;2022-08-18T11:45:54;99909.31;;;32.40;nan
64404;BME280;50726;54.912;-8.392;2022-08-18T11:48:31;99908.22;;;32.92;nan
64404;BME280;50726;54.912;-8.392;2022-08-18T11:51:25;99928.03;;;32.13;nan
64404;BME280;50726;54.912;-8.392;2022-08-18T11:53:56;99914.72;;;30.78;nan
64404;BME280;50726;54.912;-8.392;2022-08-18T11:56:26;99909.44;;;32.54;nan
64404;BME280;50726;54.912;-8.392;2022-08-18T11:59:04;99905.28;;;30.20;nan
64404;BME280;50726;54.912;-8.392;2022-08-18T12:14:56;99931.84;;;28.97;nan
64404;BME280;50726;54.912;-8.392;2022-08-18T12:17:23;99946.81;;;33.36;nan
64404;BME280;50726;54.912;-8.392;2022-08-18T12:19:49;99935.19;;;31.47;nan
64404;BME280;50726;54.912;-8.392;2022-08-18T12:22:26;99924.00;;;31.87;nan
64404;BME280;50726;54.912;-8.392;2022-08-18T12:24:52;99928.56;;;30.60;nan
64404;BME280;50726;54.912;-8.392;2022-08-18T12:27:21;99925.13;;;31.26;nan
64404;BME280;50726;54.912;-8.392;2022-08-18T12:29:49;99926.28;;;32.06;nan
64404;BME280;50726;54.912;-8.392;2022-08-18T12:32:17;99924.53;;;31.61;nan
64404;BME280;50726;54.912;-8.392;2022-08-18T12:34:44;99947.72;;;27.22;nan
64404;BME280;50726;54.912;-8.392;2022-08-18T12:37:15;99948.41;;;26.98;nan
64404;BME280;50726;54.912;-8.392;2022-08-18T12:39:41;99928.44;;;26.47;nan
64404;BME280;50726;54.912;-8.392;2022-08-18T12:42:07;99924.66;;;27.46;nan
64404;BME280;50726;54.912;-8.392;2022-08-18T12:44:33;99927.78;;;27.76;nan
64404;BME280;50726;54.912;-8.392;2022-08-18T12:47:06;99912.28;;;31.43;nan
64404;BME280;50726;54.912;-8.392;2022-08-18T12:49:34;99929.44;;;31.51;nan
64404;BME280;50726;54.912;-8.392;2022-08-18T12:52:00;99924.88;;;31.73;nan
64404;BME280;50726;54.912;-8.392;2022-08-18T12:54:26;99927.00;;;30.95;nan
64404;BME280;50726;54.912;-8.392;2022-08-18T12:56:53;99924.53;;;31.61;nan
64404;BME280;50726;54.912;-8.392;2022-08-18T12:59:20;99910.47;;;29.43;nan
64404;BME280;50726;54.912;-8.392;2022-08-18T13:01:46;99938.75;;;29.39;nan
64404;BME280;50726;54.912;-8.392;2022-08-18T13:04:11;99943.75;;;29.59;nan
64404;BME280;50726;54.912;-8.392;2022-08-18T13:06:39;99937.88;;;29.07;nan
64404;BME280;50726;54.912;-8.392;2022-08-18T13:09:08;99926.66;;;28.87;nan
64404;BME280;50726;54.912;-8.392;2022-08-18T13:11:34;99930.31;;;27.78;nan
64404;BME280;50726;54.912;-8.392;2022-08-18T13:14:00;99930.69;;;27.91;nan
64404;BME280;50726;54.912;-8.392;2022-08-18T13:16:27;99948.00;;;29.05;nan
64404;BME280;50726;54.912;-8.392;2022-08-18T13:18:55;99931.91;;;28.47;nan
64404;BME280;50726;54.912;-8.392;2022-08-18T13:21:21;99943.09;;;29.08;nan
64404;BME280;50726;54.912;-8.392;2022-08-18T13:23:47;99949.63;;;29.63;nan
64404;BME280;50726;54.912;-8.392;2022-08-18T13:26:22;99933.44;;;31.10;nan
64404;BME280;50726;54.912;-8.392;2022-08-18T13:28:49;99925.91;;;29.58;nan
64404;BME280;50726;54.912;-8.392;2022-08-18T13:31:15;99930.63;;;29.56;nan
64404;BME280;50726;54.912;-8.392;2022-08-18T13:33:40;99934.19;;;29.80;nan
64404;BME280;50726;54.912;-8.392;2022-08-18T13:36:07;99955.50;;;30.21;nan
64404;BME280;50726;54.912;-8.392;2022-08-18T13:38:33;99943.31;;;30.72;nan
64404;BME280;50726;54.912;-8.392;2022-08-18T13:40:59;99927.22;;;30.55;nan
64404;BME280;50726;54.912;-8.392;2022-08-18T13:43:47;99918.56;;;30.60;nan
64404;BME280;50726;54.912;-8.392;2022-08-18T13:46:17;99926.13;;;30.03;nan
64404;BME280;50726;54.912;-8.392;2022-08-18T13:48:45;99941.13;;;26.90;nan
64404;BME280;50726;54.912;-8.392;2022-08-18T13:51:21;99936.66;;;27.25;nan
64404;BME280;50726;54.912;-8.392;2022-08-18T13:53:47;99954.38;;;27.10;nan
64404;BME280;50726;54.912;-8.392;2022-08-18T13:56:12;99919.28;;;26.85;nan
64404;BME280;50726;54.912;-8.392;2022-08-18T13:58:39;99927.63;;;30.06;nan
64404;BME280;50726;54.912;-8.392;2022-08-18T14:01:06;99957.97;;;27.61;nan
64404;BME280;50726;54.912;-8.392;2022-08-18T14:03:32;99935.66;;;27.61;nan
64404;BME280;50726;54.912;-8.392;2022-08-18T14:06:00;99933.41;;;26.87;nan
64404;BME280;50726;54.912;-8.392;2022-08-18T14:08:28;99943.91;;;27.76;nan
64404;BME280;50726;54.912;-8.392;2022-08-18T14:10:57;99950.84;;;27.95;nan
64404;BME280;50726;54.912;-8.392;2022-08-18T14:13:24;99929.28;;;27.70;nan
64404;BME280;50726;54.912;-8.392;2022-08-18T14:15:55;99942.22;;;27.75;nan
64404;BME280;50726;54.912;-8.392;2022-08-18T14:18:26;99960.44;;;28.14;nan
64404;BME280;50726;54.912;-8.392;2022-08-18T14:20:54;99959.59;;;27.54;nan
64404;BME280;50726;54.912;-8.392;2022-08-18T14:23:42;99953.53;;;27.52;nan
64404;BME280;50726;54.912;-8.392;2022-08-18T14:26:26;99964.34;;;26.73;nan
64404;BME280;50726;54.912;-8.392;2022-08-18T14:29:10;99959.00;;;26.99;nan
64404;BME280;50726;54.912;-8.392;2022-08-18T14:31:36;99967.28;;;26.88;nan
64404;BME280;50726;54.912;-8.392;2022-08-18T14:34:05;99954.31;;;27.71;nan
64404;BME280;50726;54.912;-8.392;2022-08-18T14:36:30;99938.78;;;26.42;nan
64404;BME280;50726;54.912;-8.392;2022-08-18T14:38:58;99988.53;;;26.99;nan
64404;BME280;50726;54.912;-8.392;2022-08-18T14:41:23;99944.56;;;26.74;nan
64404;BME280;50726;54.912;-8.392;2022-08-18T14:43:49;99935.09;;;26.88;nan
64404;BME280;50726;54.912;-8.392;2022-08-18T14:46:17;99935.28;;;26.68;nan
64404;BME280;50726;54.912;-8.392;2022-08-18T14:48:46;99921.47;;;27.42;nan
64404;BME280;50726;54.912;-8.392;2022-08-18T14:51:12;99939.75;;;27.47;nan
64404;BME280;50726;54.912;-8.392;2022-08-18T14:53:37;99932.03;;;27.09;nan
64404;BME280;50726;54.912;-8.392;2022-08-18T14:56:05;99943.84;;;27.59;nan
64404;BME280;50726;54.912;-8.392;2022-08-18T14:58:33;99926.75;;;27.60;nan
64404;BME280;50726;54.912;-8.392;2022-08-18T15:01:05;99932.41;;;27.57;nan
64404;BME280;50726;54.912;-8.392;2022-08-18T15:03:33;99946.75;;;26.97;nan
64404;BME280;50726;54.912;-8.392;2022-08-18T15:06:00;99937.78;;;31.93;nan
64404;BME280;50726;54.912;-8.392;2022-08-18T15:08:26;99932.88;;;31.81;nan
64404;BME280;50726;54.912;-8.392;2022-08-18T15:10:53;99938.72;;;30.34;nan
64404;BME280;50726;54.912;-8.392;2022-08-18T15:13:18;99958.69;;;30.25;nan
64404;BME280;50726;54.912;-8.392;2022-08-18T15:15:44;99951.63;;;29.92;nan
64404;BME280;50726;54.912;-8.392;2022-08-18T15:18:10;99954.00;;;30.80;nan
64404;BME280;50726;54.912;-8.392;2022-08-18T15:20:37;99949.88;;;29.36;nan
64404;BME280;50726;54.912;-8.392;2022-08-18T15:23:23;99951.88;;;31.21;nan
64404;BME280;50726;54.912;-8.392;2022-08-18T15:26:08;99951.97;;;31.58;nan
64404;BME280;50726;54.912;-8.392;2022-08-18T15:28:35;99947.94;;;29.93;nan
64404;BME280;50726;54.912;-8.392;2022-08-18T15:31:00;99967.03;;;30.38;nan
64404;BME280;50726;54.912;-8.392;2022-08-18T15:33:27;99948.53;;;30.50;nan
64404;BME280;50726;54.912;-8.392;2022-08-18T15:35:54;99937.53;;;30.75;nan
64404;BME280;50726;54.912;-8.392;2022-08-18T15:38:22;99930.91;;;31.08;nan
64404;BME280;50726;54.912;-8.392;2022-08-18T15:40:52;99958.59;;;31.40;nan
64404;BME280;50726;54.912;-8.392;2022-08-18T15:43:18;99962.06;;;32.08;nan
64404;BME280;50726;54.912;-8.392;2022-08-18T15:45:45;99949.59;;;30.64;nan
64404;BME280;50726;54.912;-8.392;2022-08-18T15:48:17;99940.59;;;30.10;nan
64404;BME280;50726;54.912;-8.392;2022-08-18T15:50:44;99969.44;;;30.01;nan
64404;BME280;50726;54.912;-8.392;2022-08-18T15:53:14;99953.66;;;30.22;nan
64404;BME280;50726;54.912;-8.392;2022-08-18T15:55:40;99963.50;;;29.51;nan
64404;BME280;50726;54.912;-8.392;2022-08-18T15:58:07;99959.63;;;30.94;nan
64404;BME280;50726;54.912;-8.392;2022-08-18T16:00:33;99959.66;;;29.37;nan
64404;BME280;50726;54.912;-8.392;2022-08-18T16:03:02;99956.22;;;29.83;nan
64404;BME280;50726;54.912;-8.392;2022-08-18T16:05:33;99956.16;;;31.97;nan
64404;BME280;50726;54.912;-8.392;2022-08-18T16:08:00;99954.41;;;31.23;nan
64404;BME280;50726;54.912;-8.392;2022-08-18T16:10:29;99955.03;;;31.40;nan
64404;BME280;50726;54.912;-8.392;2022-08-18T16:12:57;99974.78;;;29.78;nan